Flight Track Log - Related Links

Times and Time Zones

All times are in EDT time to prevent confusion due to time zone crossing. See the ASQ5740 flight status page for this flight to view local times or setup timezone preferences in your user account.


Time Position Orientation Groundspeed Altitude Reporting Facility
EDT Latitude Longitude Course Direction KTS MPH feet Rate Location/Type
Sun 08:08:46 AM 38.9833 -77.4500 288° West 185 213 2,300  Level Potomac TRACON
Sun 08:09:46 AM 39.0500 -77.4833 339° North 255 293 4,600 2,552 Climbing Potomac TRACON
Sun 08:11:00 AM 39.2668 -77.5334 344° North  Level FlightAware Approximate
Sun 08:11:47 AM 39.1786 -77.5703 332° Northwest 292 336 10,000  Level Washington Center
Sun 08:12:00 AM 39.3510 -77.5649 344° North  Level FlightAware Approximate
Sun 08:12:48 AM 39.2483 -77.6286 327° Northwest 292 336 11,400  Level Washington Center
Sun 08:13:00 AM 39.4366 -77.5833 North  Level FlightAware Approximate
Sun 08:13:46 AM 39.3267 -77.6925 328° Northwest 313 360 13,300  Level Washington Center
Sun 08:14:00 AM 39.4729 -77.6748 288° West  Level FlightAware Approximate
Sun 08:14:47 AM 39.4089 -77.7564 329° Northwest 331 381 15,000  Level Washington Center
Sun 08:15:47 AM 39.4931 -77.8236 328° Northwest 346 398 16,800 1,438 Climbing Washington Center
Sun 08:16:48 AM 39.5536 -77.9197 309° West 340 391 17,900 1,176 Climbing Washington Center
Sun 08:18:20 AM 39.6172 -78.1200 292° West 363 418 19,800 1,342 Climbing Cleveland Center
Sun 08:19:20 AM 39.6533 -78.2400 291° West 368 423 21,300 1,400 Climbing Cleveland Center
Sun 08:20:20 AM 39.6844 -78.3469 291° West 368 423 22,600 1,150 Climbing Cleveland Center
Sun 08:21:20 AM 39.7203 -78.4672 291° West 363 418 23,600 750 Climbing Cleveland Center
Sun 08:22:20 AM 39.7558 -78.5875 291° West 363 418 24,100 550 Climbing Cleveland Center
Sun 08:23:20 AM 39.7892 -78.7161 289° West 368 423 24,700 750 Climbing Cleveland Center
Sun 08:24:20 AM 39.8164 -78.8453 285° West 368 423 25,600 650 Climbing Cleveland Center
Sun 08:25:20 AM 39.8869 -78.9733 306° West 368 423 26,000 200 Climbing Cleveland Center
Sun 08:26:20 AM 39.9450 -79.0964 302° West 408 470 26,000  Level Cleveland Center
Sun 08:27:20 AM 40.0069 -79.2225 303° West 408 470 26,000  Level Cleveland Center
Sun 08:28:20 AM 40.0689 -79.3514 302° West 414 476 26,000  Level Cleveland Center
Sun 08:29:20 AM 40.1306 -79.4806 302° West 419 482 26,000  Level Cleveland Center
Sun 08:30:20 AM 40.1922 -79.6047 303° West 419 482 26,000  Level Cleveland Center
Sun 08:31:20 AM 40.2517 -79.7289 302° West 414 476 26,000  Level Cleveland Center
Sun 08:32:20 AM 40.3086 -79.8533 301° West 409 471 26,000  Level Cleveland Center
Sun 08:33:20 AM 40.3678 -79.9753 303° West 409 471 26,000  Level Cleveland Center
Sun 08:34:20 AM 40.4183 -80.0894 300° West 409 471 26,000  Level Cleveland Center
Sun 08:35:20 AM 40.4731 -80.2119 300° West 403 464 26,000  Level Cleveland Center
Sun 08:36:20 AM 40.5317 -80.3344 302° West 403 464 26,000  Level Cleveland Center
Sun 08:37:20 AM 40.5903 -80.4547 303° West 397 457 26,000  Level Cleveland Center
Sun 08:38:20 AM 40.6489 -80.5914 300° West 397 457 26,000  Level Cleveland Center
Sun 08:39:20 AM 40.6967 -80.6900 303° West 397 457 26,000  Level Cleveland Center
Sun 08:40:20 AM 40.7589 -80.8189 303° West 392 451 26,000  Level Cleveland Center
Sun 08:41:20 AM 40.8150 -80.9425 301° West 392 451 26,000  Level Cleveland Center
Sun 08:42:20 AM 40.8686 -81.0664 300° West 392 451 26,000  Level Cleveland Center
Sun 08:43:20 AM 40.9244 -81.1903 301° West 392 451 26,000  Level Cleveland Center
Sun 08:44:20 AM 40.9778 -81.3092 301° West 392 451 26,000  Level Cleveland Center
Sun 08:45:20 AM 41.0333 -81.4308 301° West 392 451 26,000  Level Cleveland Center
Sun 08:46:20 AM 41.0886 -81.5556 300° West 392 451 26,000  Level Cleveland Center
Sun 08:47:20 AM 41.1458 -81.6750 302° West 392 451 26,000  Level Cleveland Center
Sun 08:48:20 AM 41.2008 -81.8003 300° West 392 451 26,000  Level Cleveland Center
Sun 08:49:20 AM 41.2558 -81.9228 301° West 386 444 26,000 -300 Level Cleveland Center
Sun 08:50:20 AM 41.3128 -82.0511 301° West 386 444 25,400 -1,650 Descending Cleveland Center
Sun 08:51:20 AM 41.3794 -82.1992 301° West 413 475 22,700 -2,300 Descending Cleveland Center
Sun 08:52:20 AM 41.4406 -82.3033 308° West 413 475 20,800 -2,150 Descending Cleveland Center
Sun 08:53:20 AM 41.5117 -82.4161 310° West 404 465 18,400 -2,422 Descending Cleveland Center
Sun 08:54:09 AM 41.5706 -82.5206 307° West 391 450 16,400 -2,388 Descending Cleveland Center
Sun 08:54:58 AM 41.6292 -82.6167 309° West 383 441 14,500 -2,291 Descending Cleveland Center
Sun 08:55:59 AM 41.6919 -82.7214 309° West 368 423 12,200 -1,230 Descending Cleveland Center
Sun 08:57:00 AM 41.7506 -82.8097 312° West 267 307 12,000 -787 Descending Cleveland Center
Sun 08:58:01 AM 41.8056 -82.8786 317° Northwest 272 313 10,600 -1,426 Descending Cleveland Center
Sun 08:59:02 AM 41.8456 -82.9608 303° West 267 307 9,100 -1,377 Descending Cleveland Center
Sun 09:00:03 AM 41.8750 -83.0539 293° West 266 306 7,800 -1,122 Descending Cleveland Center
Sun 09:01:05 AM 41.8875 -83.1519 280° West 233 268 6,800 -878 Descending Cleveland Center
Sun 09:02:06 AM 41.9003 -83.2278 283° West 224 258 6,000 -393 Descending Cleveland Center
Sun 09:03:07 AM 41.9108 -83.3092 280° West 197 227 6,000 -98 Level Cleveland Center
Sun 09:04:08 AM 41.9342 -83.3772 295° West 209 241 5,800 -787 Descending Cleveland Center
Sun 09:05:09 AM 41.9789 -83.4239 322° Northwest 199 229 4,400 -878 Descending Cleveland Center
Sun 09:06:11 AM 42.0289 -83.4233 360° North 174 200 4,000 -634 Descending Cleveland Center
Sun 09:07:12 AM 42.0811 -83.4228 360° North 176 203 3,100 -885 Descending Cleveland Center

Login

Don't have an account? Register now (free) for customized features, flight alerts, and more!